F\v Desperado — FVFQ — position and weather

sailwx.info

Track history (hours):
 
Tides and Currents Weather Stations Pressure Air Temp Water Temp Dewpoint Dewpoint Depression Visibility Wind Speed Wind Dir Waves Ship Positions

F\v Desperado

Last reported at 2016-Aug-30 03:06 UTC. Time now 2016-Aug-31 06:03 UTC.
Position N 47°53' W 003°55'.

Type: Fishing. MMSI: 228312000.

Date/timePositionNaut miles runAvg speedWind from/ knotsBaromVisibWave heightAir tempDewpointWater temp
2016-Aug-30 03:06N 47°53' W 003°55'0 0.0
2016-Aug-30 02:32N 47°53' W 003°55'  
2016-Aug-26 23:09N 47°33' W 003°52'13 7.9
2016-Aug-26 21:32N 47°21' W 003°47'20 1.9
2016-Aug-26 11:15N 47°02' W 003°39'2 2.8
2016-Aug-26 10:33N 47°04' W 003°41'3 3.4
2016-Aug-26 09:33N 47°07' W 003°42'4 3.5
2016-Aug-26 08:32N 47°10' W 003°44'3 3.5
2016-Aug-26 07:34N 47°13' W 003°46'5 5.2
2016-Aug-26 06:34N 47°19' W 003°47'27 4.5
2016-Aug-26 00:28N 47°45' W 003°55'8 8.4
2016-Aug-25 23:33N 47°38' W 003°53'8 8.2
2016-Aug-25 22:33N 47°30' W 003°51'9 8.5
2016-Aug-25 21:30N 47°21' W 003°49'8 8.5
2016-Aug-25 20:30N 47°13' W 003°46'4 4.4
2016-Aug-25 19:33N 47°09' W 003°44'3 3.3
2016-Aug-25 18:33N 47°06' W 003°42'3 3.4
2016-Aug-25 17:33N 47°03' W 003°39'3 2.5
2016-Aug-25 16:33N 47°01' W 003°37'3 3.1
2016-Aug-25 15:33N 47°03' W 003°41'3 3.3
2016-Aug-25 14:33N 47°05' W 003°44'4 3.4
2016-Aug-25 13:24N 47°09' W 003°45'3 1.6
2016-Aug-25 11:30N 47°06' W 003°44'3 3.3
2016-Aug-25 10:30N 47°03' W 003°42'3 2.9
2016-Aug-25 09:33N 47°02' W 003°39'2 1.1
2016-Aug-25 07:18N 47°03' W 003°42'3 3.7
2016-Aug-25 06:31N 47°06' W 003°43'8 3.9
2016-Aug-25 04:33N 47°13' W 003°45'8 8.0
2016-Aug-25 03:33N 47°21' W 003°48'8 8.2
2016-Aug-25 02:33N 47°29' W 003°50'8 8.2
2016-Aug-25 01:33N 47°37' W 003°53'10 8.7
2016-Aug-25 00:27N 47°47' W 003°55'6 6.8
2016-Aug-24 23:34N 47°53' W 003°55'3 3.1
2016-Aug-24 22:34N 47°50' W 003°56'8 8.2
2016-Aug-24 21:34N 47°42' W 003°54'8 7.4
2016-Aug-24 20:32N 47°36' W 004°01'9 1.8
2016-Aug-24 15:19N 47°36' W 004°15'3 3.5
2016-Aug-24 14:30N 47°35' W 004°11'4 3.7
2016-Aug-24 13:33N 47°34' W 004°06'9 1.7
2016-Aug-24 08:19N 47°37' W 004°18'2 3.3
2016-Aug-24 07:33N 47°36' W 004°15'4 3.3
2016-Aug-24 06:29N 47°35' W 004°10'6 3.3
2016-Aug-24 04:33N 47°34' W 004°01'8 8.0
2016-Aug-24 03:34N 47°41' W 003°54'8 8.3
2016-Aug-24 02:34N 47°49' W 003°56'2 1.6
2016-Aug-24 01:16N 47°51' W 003°56'10 8.6
2016-Aug-24 00:03N 47°41' W 003°54'4 8.2
2016-Aug-23 23:33N 47°37' W 003°53'8 8.4
2016-Aug-23 22:33N 47°28' W 003°51'8 8.4
2016-Aug-23 21:33N 47°20' W 003°49'8 8.1
2016-Aug-23 20:33N 47°12' W 003°46'5 4.5
2016-Aug-23 19:33N 47°08' W 003°44'3 3.2
2016-Aug-23 18:33N 47°05' W 003°43'3 3.2
2016-Aug-23 17:34N 47°03' W 003°39'3 1.3
2016-Aug-23 15:33N 47°00' W 003°41'3 2.9
2016-Aug-23 14:33N 47°01' W 003°36'2 2.3
2016-Aug-23 13:34N 47°00' W 003°40'1 0.5
2016-Aug-23 12:25N 47°00' W 003°39'1 1.5
2016-Aug-23 11:34N 47°01' W 003°40'1 0.6
2016-Aug-23 10:30N 47°01' W 003°40'1 0.9
2016-Aug-23 09:12N 47°00' W 003°38'2 2.8
2016-Aug-23 08:33N 47°01' W 003°41'4 3.5
2016-Aug-23 07:33N 47°04' W 003°43'5 4.6
2016-Aug-23 06:33N 47°09' W 003°44'8 7.9
2016-Aug-23 05:33N 47°17' W 003°47'8 7.9
2016-Aug-23 04:34N 47°24' W 003°49'8 7.9
2016-Aug-23 03:33N 47°32' W 003°51'8 7.8
2016-Aug-23 02:33N 47°40' W 003°54'11 8.0
2016-Aug-23 01:14N 47°50' W 003°56'20 3.4
2016-Aug-22 19:21N 47°30' W 003°52'9 7.9
2016-Aug-22 18:16N 47°22' W 003°50'7 8.4
2016-Aug-22 17:24N 47°15' W 003°46'7 6.0
2016-Aug-22 16:10N 47°08' W 003°44'2 3.5
2016-Aug-22 15:34N 47°06' W 003°43'4 3.5
2016-Aug-22 14:21N 47°03' W 003°39'3 3.6
2016-Aug-22 13:27N 47°00' W 003°36'3 3.8
2016-Aug-22 12:32N 46°58' W 003°32'3 3.0
2016-Aug-22 11:30N 46°55' W 003°29'2 0.9
2016-Aug-22 09:33N 46°54' W 003°30'2 1.9
2016-Aug-22 08:33N 46°55' W 003°33'2 1.8
2016-Aug-22 07:33N 46°53' W 003°31'1 1.2
2016-Aug-22 06:24N 46°53' W 003°33'1 0.3
2016-Aug-22 04:25N 46°53' W 003°33'3 2.8
2016-Aug-22 03:30N 46°55' W 003°33'3 2.9
2016-Aug-22 02:32N 46°56' W 003°29'4 2.9
2016-Aug-22 01:13N 46°53' W 003°33'2 2.9
2016-Aug-22 00:33N 46°54' W 003°34'3 3.1
2016-Aug-21 23:33N 46°56' W 003°30'5 1.7
2016-Aug-21 20:30N 46°54' W 003°37'3 3.3
2016-Aug-21 19:32N 46°55' W 003°33'2 0.8
2016-Aug-21 17:31N 46°54' W 003°34'2 0.6
2016-Aug-21 13:30N 46°53' W 003°31'33 1.4
2016-Aug-20 13:24N 47°24' W 003°50'7 7.9
2016-Aug-20 12:33N 47°30' W 003°52'  
Track history (hours):
 
Tides and Currents Weather Stations Pressure Air Temp Water Temp Dewpoint Dewpoint Depression Visibility Wind Speed Wind Dir Waves Ship Positions

F\v Desperado

Last reported at 2016-Aug-30 03:06 UTC. Time now 2016-Aug-31 06:03 UTC.
Position N 47°53' W 003°55'.

Type: Fishing. MMSI: 228312000.

Date/timePositionNaut miles runAvg speedWind from/ knotsBaromVisibWave heightAir tempDewpointWater temp
2016-Aug-30 03:06N 47°53' W 003°55'0 0.0
2016-Aug-30 02:32N 47°53' W 003°55'  
2016-Aug-26 23:09N 47°33' W 003°52'13 7.9
2016-Aug-26 21:32N 47°21' W 003°47'20 1.9
2016-Aug-26 11:15N 47°02' W 003°39'2 2.8
2016-Aug-26 10:33N 47°04' W 003°41'3 3.4
2016-Aug-26 09:33N 47°07' W 003°42'4 3.5
2016-Aug-26 08:32N 47°10' W 003°44'3 3.5
2016-Aug-26 07:34N 47°13' W 003°46'5 5.2
2016-Aug-26 06:34N 47°19' W 003°47'27 4.5
2016-Aug-26 00:28N 47°45' W 003°55'8 8.4
2016-Aug-25 23:33N 47°38' W 003°53'8 8.2
2016-Aug-25 22:33N 47°30' W 003°51'9 8.5
2016-Aug-25 21:30N 47°21' W 003°49'8 8.5
2016-Aug-25 20:30N 47°13' W 003°46'4 4.4
2016-Aug-25 19:33N 47°09' W 003°44'3 3.3
2016-Aug-25 18:33N 47°06' W 003°42'3 3.4
2016-Aug-25 17:33N 47°03' W 003°39'3 2.5
2016-Aug-25 16:33N 47°01' W 003°37'3 3.1
2016-Aug-25 15:33N 47°03' W 003°41'3 3.3
2016-Aug-25 14:33N 47°05' W 003°44'4 3.4
2016-Aug-25 13:24N 47°09' W 003°45'3 1.6
2016-Aug-25 11:30N 47°06' W 003°44'3 3.3
2016-Aug-25 10:30N 47°03' W 003°42'3 2.9
2016-Aug-25 09:33N 47°02' W 003°39'2 1.1
2016-Aug-25 07:18N 47°03' W 003°42'3 3.7
2016-Aug-25 06:31N 47°06' W 003°43'8 3.9
2016-Aug-25 04:33N 47°13' W 003°45'8 8.0
2016-Aug-25 03:33N 47°21' W 003°48'8 8.2
2016-Aug-25 02:33N 47°29' W 003°50'8 8.2
2016-Aug-25 01:33N 47°37' W 003°53'10 8.7
2016-Aug-25 00:27N 47°47' W 003°55'6 6.8
2016-Aug-24 23:34N 47°53' W 003°55'3 3.1
2016-Aug-24 22:34N 47°50' W 003°56'8 8.2
2016-Aug-24 21:34N 47°42' W 003°54'8 7.4
2016-Aug-24 20:32N 47°36' W 004°01'9 1.8
2016-Aug-24 15:19N 47°36' W 004°15'3 3.5
2016-Aug-24 14:30N 47°35' W 004°11'4 3.7
2016-Aug-24 13:33N 47°34' W 004°06'9 1.7
2016-Aug-24 08:19N 47°37' W 004°18'2 3.3
2016-Aug-24 07:33N 47°36' W 004°15'4 3.3
2016-Aug-24 06:29N 47°35' W 004°10'6 3.3
2016-Aug-24 04:33N 47°34' W 004°01'8 8.0
2016-Aug-24 03:34N 47°41' W 003°54'8 8.3
2016-Aug-24 02:34N 47°49' W 003°56'2 1.6
2016-Aug-24 01:16N 47°51' W 003°56'10 8.6
2016-Aug-24 00:03N 47°41' W 003°54'4 8.2
2016-Aug-23 23:33N 47°37' W 003°53'8 8.4
2016-Aug-23 22:33N 47°28' W 003°51'8 8.4
2016-Aug-23 21:33N 47°20' W 003°49'8 8.1
2016-Aug-23 20:33N 47°12' W 003°46'5 4.5
2016-Aug-23 19:33N 47°08' W 003°44'3 3.2
2016-Aug-23 18:33N 47°05' W 003°43'3 3.2
2016-Aug-23 17:34N 47°03' W 003°39'3 1.3
2016-Aug-23 15:33N 47°00' W 003°41'3 2.9
2016-Aug-23 14:33N 47°01' W 003°36'2 2.3
2016-Aug-23 13:34N 47°00' W 003°40'1 0.5
2016-Aug-23 12:25N 47°00' W 003°39'1 1.5
2016-Aug-23 11:34N 47°01' W 003°40'1 0.6
2016-Aug-23 10:30N 47°01' W 003°40'1 0.9
2016-Aug-23 09:12N 47°00' W 003°38'2 2.8
2016-Aug-23 08:33N 47°01' W 003°41'4 3.5
2016-Aug-23 07:33N 47°04' W 003°43'5 4.6
2016-Aug-23 06:33N 47°09' W 003°44'8 7.9
2016-Aug-23 05:33N 47°17' W 003°47'8 7.9
2016-Aug-23 04:34N 47°24' W 003°49'8 7.9
2016-Aug-23 03:33N 47°32' W 003°51'8 7.8
2016-Aug-23 02:33N 47°40' W 003°54'11 8.0
2016-Aug-23 01:14N 47°50' W 003°56'20 3.4
2016-Aug-22 19:21N 47°30' W 003°52'9 7.9
2016-Aug-22 18:16N 47°22' W 003°50'7 8.4
2016-Aug-22 17:24N 47°15' W 003°46'7 6.0
2016-Aug-22 16:10N 47°08' W 003°44'2 3.5
2016-Aug-22 15:34N 47°06' W 003°43'4 3.5
2016-Aug-22 14:21N 47°03' W 003°39'3 3.6
2016-Aug-22 13:27N 47°00' W 003°36'3 3.8
2016-Aug-22 12:32N 46°58' W 003°32'3 3.0
2016-Aug-22 11:30N 46°55' W 003°29'2 0.9
2016-Aug-22 09:33N 46°54' W 003°30'2 1.9
2016-Aug-22 08:33N 46°55' W 003°33'2 1.8
2016-Aug-22 07:33N 46°53' W 003°31'1 1.2
2016-Aug-22 06:24N 46°53' W 003°33'1 0.3
2016-Aug-22 04:25N 46°53' W 003°33'3 2.8
2016-Aug-22 03:30N 46°55' W 003°33'3 2.9
2016-Aug-22 02:32N 46°56' W 003°29'4 2.9
2016-Aug-22 01:13N 46°53' W 003°33'2 2.9
2016-Aug-22 00:33N 46°54' W 003°34'3 3.1
2016-Aug-21 23:33N 46°56' W 003°30'5 1.7
2016-Aug-21 20:30N 46°54' W 003°37'3 3.3
2016-Aug-21 19:32N 46°55' W 003°33'2 0.8
2016-Aug-21 17:31N 46°54' W 003°34'2 0.6
2016-Aug-21 13:30N 46°53' W 003°31'33 1.4
2016-Aug-20 13:24N 47°24' W 003°50'7 7.9
2016-Aug-20 12:33N 47°30' W 003°52'  

Dump ship's entire track history